sensor_id;sensor_type;location;lat;lon;timestamp;pressure;altitude;pressure_sealevel;temperature;humidity
37852;BME280;23691;52.486;4.650;2023-06-01T00:01:59;102575.88;;;15.03;62.98
37852;BME280;23691;52.486;4.650;2023-06-01T00:04:25;102576.88;;;15.02;63.12
37852;BME280;23691;52.486;4.650;2023-06-01T00:06:50;102581.03;;;14.97;63.08
37852;BME280;23691;52.486;4.650;2023-06-01T00:09:16;102576.25;;;14.91;63.24
37852;BME280;23691;52.486;4.650;2023-06-01T00:11:41;102584.50;;;14.89;63.23
37852;BME280;23691;52.486;4.650;2023-06-01T00:14:07;102584.94;;;14.85;63.16
37852;BME280;23691;52.486;4.650;2023-06-01T00:16:32;102583.41;;;14.82;63.31
37852;BME280;23691;52.486;4.650;2023-06-01T00:18:58;102577.56;;;14.87;62.98
37852;BME280;23691;52.486;4.650;2023-06-01T00:21:26;102572.31;;;14.85;62.77
37852;BME280;23691;52.486;4.650;2023-06-01T00:23:51;102570.63;;;14.84;63.01
37852;BME280;23691;52.486;4.650;2023-06-01T00:26:17;102577.03;;;14.73;63.01
37852;BME280;23691;52.486;4.650;2023-06-01T00:28:42;102575.00;;;14.57;63.68
37852;BME280;23691;52.486;4.650;2023-06-01T00:31:08;102572.03;;;14.51;63.34
37852;BME280;23691;52.486;4.650;2023-06-01T00:33:33;102570.31;;;14.59;63.38
37852;BME280;23691;52.486;4.650;2023-06-01T00:35:58;102575.81;;;14.68;63.25
37852;BME280;23691;52.486;4.650;2023-06-01T00:38:24;102568.81;;;14.75;63.30
37852;BME280;23691;52.486;4.650;2023-06-01T00:40:49;102572.88;;;14.79;63.25
37852;BME280;23691;52.486;4.650;2023-06-01T00:43:16;102569.91;;;14.82;63.38
37852;BME280;23691;52.486;4.650;2023-06-01T00:45:42;102570.75;;;14.82;63.11
37852;BME280;23691;52.486;4.650;2023-06-01T00:48:08;102567.50;;;14.79;63.46
37852;BME280;23691;52.486;4.650;2023-06-01T00:50:34;102562.44;;;14.76;63.22
37852;BME280;23691;52.486;4.650;2023-06-01T00:53:00;102568.56;;;14.68;63.67
37852;BME280;23691;52.486;4.650;2023-06-01T00:55:27;102562.91;;;14.62;63.81
37852;BME280;23691;52.486;4.650;2023-06-01T00:57:54;102558.09;;;14.65;63.88
37852;BME280;23691;52.486;4.650;2023-06-01T01:00:20;102551.88;;;14.65;63.59
37852;BME280;23691;52.486;4.650;2023-06-01T01:02:48;102557.78;;;14.68;63.60
37852;BME280;23691;52.486;4.650;2023-06-01T01:05:16;102553.81;;;14.72;63.55
37852;BME280;23691;52.486;4.650;2023-06-01T01:08:00;102561.72;;;14.74;63.55
37852;BME280;23691;52.486;4.650;2023-06-01T01:10:48;102557.59;;;14.79;63.75
37852;BME280;23691;52.486;4.650;2023-06-01T01:13:37;102553.06;;;14.80;63.73
37852;BME280;23691;52.486;4.650;2023-06-01T01:16:24;102551.50;;;14.77;63.52
37852;BME280;23691;52.486;4.650;2023-06-01T01:19:11;102559.47;;;14.69;63.90
37852;BME280;23691;52.486;4.650;2023-06-01T01:21:47;102556.38;;;14.64;63.86
37852;BME280;23691;52.486;4.650;2023-06-01T01:24:34;102552.31;;;14.60;63.77
37852;BME280;23691;52.486;4.650;2023-06-01T01:27:22;102557.31;;;14.55;63.97
37852;BME280;23691;52.486;4.650;2023-06-01T01:29:52;102555.84;;;14.51;63.80
37852;BME280;23691;52.486;4.650;2023-06-01T01:32:20;102552.06;;;14.53;63.76
37852;BME280;23691;52.486;4.650;2023-06-01T01:34:47;102554.84;;;14.52;63.80
37852;BME280;23691;52.486;4.650;2023-06-01T01:37:13;102545.66;;;14.45;64.00
37852;BME280;23691;52.486;4.650;2023-06-01T01:39:39;102555.59;;;14.44;64.13
37852;BME280;23691;52.486;4.650;2023-06-01T01:42:04;102547.50;;;14.44;64.12
37852;BME280;23691;52.486;4.650;2023-06-01T01:44:32;102539.00;;;14.49;64.26
37852;BME280;23691;52.486;4.650;2023-06-01T01:46:59;102538.16;;;14.48;64.04
37852;BME280;23691;52.486;4.650;2023-06-01T01:49:46;102539.56;;;14.52;63.93
37852;BME280;23691;52.486;4.650;2023-06-01T01:52:21;102541.97;;;14.55;63.98
37852;BME280;23691;52.486;4.650;2023-06-01T01:54:49;102553.84;;;14.63;63.69
37852;BME280;23691;52.486;4.650;2023-06-01T01:57:17;102549.44;;;14.62;63.70
37852;BME280;23691;52.486;4.650;2023-06-01T01:59:43;102548.59;;;14.61;63.98
37852;BME280;23691;52.486;4.650;2023-06-01T02:02:10;102552.16;;;14.52;64.07
37852;BME280;23691;52.486;4.650;2023-06-01T02:04:41;102557.72;;;14.50;64.17
37852;BME280;23691;52.486;4.650;2023-06-01T02:07:06;102541.69;;;14.49;64.31
37852;BME280;23691;52.486;4.650;2023-06-01T02:09:32;102546.38;;;14.47;64.43
37852;BME280;23691;52.486;4.650;2023-06-01T02:11:58;102549.38;;;14.44;64.39
37852;BME280;23691;52.486;4.650;2023-06-01T02:14:23;102546.13;;;14.40;64.58
37852;BME280;23691;52.486;4.650;2023-06-01T02:16:48;102543.13;;;14.43;64.58
37852;BME280;23691;52.486;4.650;2023-06-01T02:19:14;102545.66;;;14.45;64.62
37852;BME280;23691;52.486;4.650;2023-06-01T02:21:44;102544.38;;;14.49;64.57
37852;BME280;23691;52.486;4.650;2023-06-01T02:24:09;102546.69;;;14.44;64.49
37852;BME280;23691;52.486;4.650;2023-06-01T02:26:35;102547.56;;;14.34;64.79
37852;BME280;23691;52.486;4.650;2023-06-01T02:29:01;102534.28;;;14.23;65.04
37852;BME280;23691;52.486;4.650;2023-06-01T02:31:33;102529.91;;;14.12;65.38
37852;BME280;23691;52.486;4.650;2023-06-01T02:33:59;102541.00;;;14.09;65.50
37852;BME280;23691;52.486;4.650;2023-06-01T02:36:27;102540.69;;;14.12;65.60
37852;BME280;23691;52.486;4.650;2023-06-01T02:38:54;102533.19;;;14.16;65.48
37852;BME280;23691;52.486;4.650;2023-06-01T02:41:20;102530.06;;;14.21;65.37
37852;BME280;23691;52.486;4.650;2023-06-01T02:43:46;102534.13;;;14.25;65.35
37852;BME280;23691;52.486;4.650;2023-06-01T02:46:12;102536.16;;;14.23;65.22
37852;BME280;23691;52.486;4.650;2023-06-01T02:48:37;102537.13;;;14.22;65.09
37852;BME280;23691;52.486;4.650;2023-06-01T02:51:03;102540.41;;;14.15;65.70
37852;BME280;23691;52.486;4.650;2023-06-01T02:53:28;102540.84;;;14.11;65.36
37852;BME280;23691;52.486;4.650;2023-06-01T02:55:53;102528.53;;;14.08;65.87
37852;BME280;23691;52.486;4.650;2023-06-01T02:58:19;102538.47;;;14.08;65.97
37852;BME280;23691;52.486;4.650;2023-06-01T03:00:45;102543.41;;;14.03;65.86
37852;BME280;23691;52.486;4.650;2023-06-01T03:03:12;102544.28;;;14.03;65.77
37852;BME280;23691;52.486;4.650;2023-06-01T03:05:37;102544.00;;;13.96;65.86
37852;BME280;23691;52.486;4.650;2023-06-01T03:08:03;102550.66;;;13.92;65.79
37852;BME280;23691;52.486;4.650;2023-06-01T03:10:29;102542.59;;;13.92;65.83
37852;BME280;23691;52.486;4.650;2023-06-01T03:12:54;102542.03;;;13.89;65.87
37852;BME280;23691;52.486;4.650;2023-06-01T03:15:20;102540.31;;;13.88;65.86
37852;BME280;23691;52.486;4.650;2023-06-01T03:17:45;102540.09;;;13.81;65.79
37852;BME280;23691;52.486;4.650;2023-06-01T03:20:11;102542.59;;;13.83;65.72
37852;BME280;23691;52.486;4.650;2023-06-01T03:22:43;102540.78;;;13.83;65.71
37852;BME280;23691;52.486;4.650;2023-06-01T03:25:09;102534.97;;;13.78;65.74
37852;BME280;23691;52.486;4.650;2023-06-01T03:27:36;102532.16;;;13.80;65.83
37852;BME280;23691;52.486;4.650;2023-06-01T03:30:03;102526.75;;;13.80;65.93
37852;BME280;23691;52.486;4.650;2023-06-01T03:32:29;102522.09;;;13.82;65.96
37852;BME280;23691;52.486;4.650;2023-06-01T03:34:54;102526.75;;;13.80;65.87
37852;BME280;23691;52.486;4.650;2023-06-01T03:37:20;102523.94;;;13.81;65.92
37852;BME280;23691;52.486;4.650;2023-06-01T03:39:46;102527.47;;;13.82;66.01
37852;BME280;23691;52.486;4.650;2023-06-01T03:42:11;102526.47;;;13.83;66.15
37852;BME280;23691;52.486;4.650;2023-06-01T03:44:36;102522.81;;;13.84;65.87
37852;BME280;23691;52.486;4.650;2023-06-01T03:47:02;102528.31;;;13.82;66.38
37852;BME280;23691;52.486;4.650;2023-06-01T03:49:27;102519.41;;;13.82;66.02
37852;BME280;23691;52.486;4.650;2023-06-01T03:51:53;102520.81;;;13.86;65.98
37852;BME280;23691;52.486;4.650;2023-06-01T03:54:19;102525.09;;;13.79;65.95
37852;BME280;23691;52.486;4.650;2023-06-01T03:56:46;102528.19;;;13.74;65.94
37852;BME280;23691;52.486;4.650;2023-06-01T03:59:11;102524.81;;;13.72;66.19
37852;BME280;23691;52.486;4.650;2023-06-01T04:01:36;102525.81;;;13.71;66.27
37852;BME280;23691;52.486;4.650;2023-06-01T04:04:05;102527.63;;;13.70;66.29
37852;BME280;23691;52.486;4.650;2023-06-01T04:06:31;102531.59;;;13.76;66.26
37852;BME280;23691;52.486;4.650;2023-06-01T04:09:03;102528.63;;;13.79;66.20
37852;BME280;23691;52.486;4.650;2023-06-01T04:11:32;102537.81;;;13.77;66.11
37852;BME280;23691;52.486;4.650;2023-06-01T04:13:58;102538.38;;;13.80;66.23
37852;BME280;23691;52.486;4.650;2023-06-01T04:16:24;102534.28;;;13.86;65.75
37852;BME280;23691;52.486;4.650;2023-06-01T04:18:49;102538.94;;;13.84;65.88
37852;BME280;23691;52.486;4.650;2023-06-01T04:21:15;102532.13;;;13.89;65.87
37852;BME280;23691;52.486;4.650;2023-06-01T04:23:41;102532.84;;;13.91;65.67
37852;BME280;23691;52.486;4.650;2023-06-01T04:26:07;102526.31;;;13.94;65.58
37852;BME280;23691;52.486;4.650;2023-06-01T04:28:33;102528.28;;;13.92;65.78
37852;BME280;23691;52.486;4.650;2023-06-01T04:30:59;102528.16;;;13.93;65.52
37852;BME280;23691;52.486;4.650;2023-06-01T04:33:25;102524.03;;;13.99;65.51
37852;BME280;23691;52.486;4.650;2023-06-01T04:35:53;102521.88;;;14.03;65.38
37852;BME280;23691;52.486;4.650;2023-06-01T04:38:19;102519.06;;;14.04;65.18
37852;BME280;23691;52.486;4.650;2023-06-01T04:40:46;102518.22;;;14.04;65.04
37852;BME280;23691;52.486;4.650;2023-06-01T04:43:12;102522.59;;;14.05;65.10
37852;BME280;23691;52.486;4.650;2023-06-01T04:45:38;102530.94;;;14.11;65.23
37852;BME280;23691;52.486;4.650;2023-06-01T04:48:04;102532.34;;;14.15;64.87
37852;BME280;23691;52.486;4.650;2023-06-01T04:50:34;102530.59;;;14.24;64.91
37852;BME280;23691;52.486;4.650;2023-06-01T04:53:00;102532.16;;;14.27;64.73
37852;BME280;23691;52.486;4.650;2023-06-01T04:55:26;102527.03;;;14.33;64.93
37852;BME280;23691;52.486;4.650;2023-06-01T04:57:52;102531.56;;;14.33;65.03
37852;BME280;23691;52.486;4.650;2023-06-01T05:00:19;102538.34;;;14.37;64.89
37852;BME280;23691;52.486;4.650;2023-06-01T05:02:46;102533.97;;;14.36;64.93
37852;BME280;23691;52.486;4.650;2023-06-01T05:05:14;102537.19;;;14.39;64.72
37852;BME280;23691;52.486;4.650;2023-06-01T05:07:40;102534.63;;;14.48;64.77
37852;BME280;23691;52.486;4.650;2023-06-01T05:10:11;102538.69;;;14.52;64.97
37852;BME280;23691;52.486;4.650;2023-06-01T05:12:37;102539.28;;;14.55;64.60
37852;BME280;23691;52.486;4.650;2023-06-01T05:15:04;102537.00;;;14.51;64.42
37852;BME280;23691;52.486;4.650;2023-06-01T05:17:30;102541.16;;;14.45;64.63
37852;BME280;23691;52.486;4.650;2023-06-01T05:19:55;102539.88;;;14.39;64.73
37852;BME280;23691;52.486;4.650;2023-06-01T05:22:22;102541.19;;;14.35;64.43
37852;BME280;23691;52.486;4.650;2023-06-01T05:24:48;102533.66;;;14.39;64.41
37852;BME280;23691;52.486;4.650;2023-06-01T05:27:16;102539.16;;;14.47;64.31
37852;BME280;23691;52.486;4.650;2023-06-01T05:29:41;102539.69;;;14.51;64.11
37852;BME280;23691;52.486;4.650;2023-06-01T05:32:08;102546.22;;;14.58;63.94
37852;BME280;23691;52.486;4.650;2023-06-01T05:34:33;102531.56;;;14.70;63.86
37852;BME280;23691;52.486;4.650;2023-06-01T05:37:00;102532.47;;;14.79;63.45
37852;BME280;23691;52.486;4.650;2023-06-01T05:39:26;102533.56;;;14.86;63.35
37852;BME280;23691;52.486;4.650;2023-06-01T05:41:54;102534.72;;;14.84;63.11
37852;BME280;23691;52.486;4.650;2023-06-01T05:44:19;102540.09;;;14.84;63.22
37852;BME280;23691;52.486;4.650;2023-06-01T05:46:45;102537.28;;;14.85;63.15
37852;BME280;23691;52.486;4.650;2023-06-01T05:49:10;102538.50;;;14.91;63.16
37852;BME280;23691;52.486;4.650;2023-06-01T05:51:36;102538.19;;;14.94;62.98
37852;BME280;23691;52.486;4.650;2023-06-01T05:54:03;102535.75;;;15.00;63.02
37852;BME280;23691;52.486;4.650;2023-06-01T05:56:29;102526.69;;;15.01;62.73
37852;BME280;23691;52.486;4.650;2023-06-01T05:58:55;102534.06;;;14.99;62.62
37852;BME280;23691;52.486;4.650;2023-06-01T06:01:20;102533.00;;;15.10;62.68
37852;BME280;23691;52.486;4.650;2023-06-01T06:03:47;102534.69;;;15.11;62.48
37852;BME280;23691;52.486;4.650;2023-06-01T06:06:13;102538.06;;;15.13;62.32
37852;BME280;23691;52.486;4.650;2023-06-01T06:08:38;102534.91;;;15.18;61.98
37852;BME280;23691;52.486;4.650;2023-06-01T06:11:03;102532.13;;;15.28;61.76
37852;BME280;23691;52.486;4.650;2023-06-01T06:13:29;102536.38;;;15.30;61.46
37852;BME280;23691;52.486;4.650;2023-06-01T06:15:54;102538.53;;;15.27;61.52
37852;BME280;23691;52.486;4.650;2023-06-01T06:18:21;102538.88;;;15.23;61.42
37852;BME280;23691;52.486;4.650;2023-06-01T06:20:46;102538.09;;;15.31;61.14
37852;BME280;23691;52.486;4.650;2023-06-01T06:23:12;102536.16;;;15.41;60.92
37852;BME280;23691;52.486;4.650;2023-06-01T06:25:38;102544.31;;;15.50;60.78
37852;BME280;23691;52.486;4.650;2023-06-01T06:28:05;102545.22;;;15.58;60.56
37852;BME280;23691;52.486;4.650;2023-06-01T06:30:30;102540.03;;;15.65;59.92
37852;BME280;23691;52.486;4.650;2023-06-01T06:32:56;102537.34;;;15.65;60.09
37852;BME280;23691;52.486;4.650;2023-06-01T06:35:21;102539.13;;;15.74;60.08
37852;BME280;23691;52.486;4.650;2023-06-01T06:37:47;102540.28;;;15.72;59.81
37852;BME280;23691;52.486;4.650;2023-06-01T06:40:12;102540.56;;;15.86;59.80
37852;BME280;23691;52.486;4.650;2023-06-01T06:42:38;102547.28;;;16.08;59.33
37852;BME280;23691;52.486;4.650;2023-06-01T06:45:03;102534.84;;;16.16;59.02
37852;BME280;23691;52.486;4.650;2023-06-01T06:47:30;102545.97;;;16.13;58.76
37852;BME280;23691;52.486;4.650;2023-06-01T06:49:56;102544.84;;;16.23;58.40
37852;BME280;23691;52.486;4.650;2023-06-01T06:52:22;102541.19;;;16.33;58.11
37852;BME280;23691;52.486;4.650;2023-06-01T06:54:47;102546.13;;;16.37;57.81
37852;BME280;23691;52.486;4.650;2023-06-01T06:57:13;102542.25;;;16.48;57.58
37852;BME280;23691;52.486;4.650;2023-06-01T06:59:38;102541.75;;;16.44;57.41
37852;BME280;23691;52.486;4.650;2023-06-01T07:02:04;102533.94;;;16.41;57.46
37852;BME280;23691;52.486;4.650;2023-06-01T07:04:30;102544.47;;;16.44;57.82
37852;BME280;23691;52.486;4.650;2023-06-01T07:06:55;102539.00;;;16.36;57.50
37852;BME280;23691;52.486;4.650;2023-06-01T07:09:21;102541.91;;;16.43;57.74
37852;BME280;23691;52.486;4.650;2023-06-01T07:11:46;102544.34;;;16.62;57.39
37852;BME280;23691;52.486;4.650;2023-06-01T07:14:13;102537.00;;;16.81;57.16
37852;BME280;23691;52.486;4.650;2023-06-01T07:16:38;102540.25;;;16.84;56.67
37852;BME280;23691;52.486;4.650;2023-06-01T07:19:04;102535.19;;;16.89;56.12
37852;BME280;23691;52.486;4.650;2023-06-01T07:21:29;102540.59;;;16.98;56.06
37852;BME280;23691;52.486;4.650;2023-06-01T07:23:54;102541.13;;;17.01;55.72
37852;BME280;23691;52.486;4.650;2023-06-01T07:26:21;102550.44;;;17.07;55.76
37852;BME280;23691;52.486;4.650;2023-06-01T07:28:48;102547.22;;;17.20;55.38
37852;BME280;23691;52.486;4.650;2023-06-01T07:31:19;102541.84;;;17.28;55.69
37852;BME280;23691;52.486;4.650;2023-06-01T07:33:45;102552.84;;;17.51;54.87
37852;BME280;23691;52.486;4.650;2023-06-01T07:36:11;102564.19;;;17.63;54.62
37852;BME280;23691;52.486;4.650;2023-06-01T07:38:37;102548.28;;;17.68;53.92
37852;BME280;23691;52.486;4.650;2023-06-01T07:41:02;102557.91;;;17.70;53.93
37852;BME280;23691;52.486;4.650;2023-06-01T07:43:27;102545.91;;;17.81;53.94
37852;BME280;23691;52.486;4.650;2023-06-01T07:45:53;102544.22;;;17.88;53.57
37852;BME280;23691;52.486;4.650;2023-06-01T07:48:19;102551.31;;;17.89;53.58
37852;BME280;23691;52.486;4.650;2023-06-01T07:50:44;102547.25;;;17.93;53.33
37852;BME280;23691;52.486;4.650;2023-06-01T07:53:11;102554.03;;;17.89;53.07
37852;BME280;23691;52.486;4.650;2023-06-01T07:55:36;102542.22;;;17.82;52.97
37852;BME280;23691;52.486;4.650;2023-06-01T07:58:02;102550.31;;;17.90;53.06
37852;BME280;23691;52.486;4.650;2023-06-01T08:00:27;102549.28;;;17.91;53.17
37852;BME280;23691;52.486;4.650;2023-06-01T08:02:53;102546.25;;;17.86;52.95
37852;BME280;23691;52.486;4.650;2023-06-01T08:05:18;102550.97;;;17.84;52.52
37852;BME280;23691;52.486;4.650;2023-06-01T08:07:44;102559.44;;;17.97;52.22
37852;BME280;23691;52.486;4.650;2023-06-01T08:10:12;102551.13;;;17.99;51.69
37852;BME280;23691;52.486;4.650;2023-06-01T08:12:39;102551.13;;;18.07;51.79
37852;BME280;23691;52.486;4.650;2023-06-01T08:15:04;102540.63;;;18.12;51.09
37852;BME280;23691;52.486;4.650;2023-06-01T08:17:31;102543.69;;;18.09;51.17
37852;BME280;23691;52.486;4.650;2023-06-01T08:19:57;102539.22;;;18.24;51.09
37852;BME280;23691;52.486;4.650;2023-06-01T08:22:23;102534.94;;;18.38;50.98
37852;BME280;23691;52.486;4.650;2023-06-01T08:24:49;102541.84;;;18.49;50.94
37852;BME280;23691;52.486;4.650;2023-06-01T08:27:23;102544.31;;;18.67;50.73
37852;BME280;23691;52.486;4.650;2023-06-01T08:29:49;102543.09;;;18.78;50.39
37852;BME280;23691;52.486;4.650;2023-06-01T08:32:16;102530.19;;;18.88;50.22
37852;BME280;23691;52.486;4.650;2023-06-01T08:34:46;102529.94;;;18.98;49.76
37852;BME280;23691;52.486;4.650;2023-06-01T08:37:14;102531.38;;;18.85;49.47
37852;BME280;23691;52.486;4.650;2023-06-01T08:39:40;102538.47;;;18.86;49.72
37852;BME280;23691;52.486;4.650;2023-06-01T08:42:07;102530.41;;;19.01;49.33
37852;BME280;23691;52.486;4.650;2023-06-01T08:44:37;102525.34;;;19.21;48.92
37852;BME280;23691;52.486;4.650;2023-06-01T08:47:04;102526.50;;;19.27;48.87
37852;BME280;23691;52.486;4.650;2023-06-01T08:49:31;102524.16;;;19.24;48.95
37852;BME280;23691;52.486;4.650;2023-06-01T08:51:57;102528.13;;;19.36;48.95
37852;BME280;23691;52.486;4.650;2023-06-01T08:54:24;102521.44;;;19.47;48.37
37852;BME280;23691;52.486;4.650;2023-06-01T08:56:50;102526.53;;;19.42;48.41
37852;BME280;23691;52.486;4.650;2023-06-01T08:59:15;102531.63;;;19.45;48.30
37852;BME280;23691;52.486;4.650;2023-06-01T09:01:41;102537.91;;;19.45;48.04
37852;BME280;23691;52.486;4.650;2023-06-01T09:04:07;102525.09;;;19.54;47.80
37852;BME280;23691;52.486;4.650;2023-06-01T09:06:34;102522.94;;;19.72;47.78
37852;BME280;23691;52.486;4.650;2023-06-01T09:09:02;102526.13;;;19.91;47.26
37852;BME280;23691;52.486;4.650;2023-06-01T09:11:27;102527.06;;;19.98;47.26
37852;BME280;23691;52.486;4.650;2023-06-01T09:13:53;102520.53;;;20.07;47.23
37852;BME280;23691;52.486;4.650;2023-06-01T09:16:18;102522.50;;;20.13;46.78
37852;BME280;23691;52.486;4.650;2023-06-01T09:18:53;102529.34;;;20.09;46.98
37852;BME280;23691;52.486;4.650;2023-06-01T09:21:19;102520.81;;;20.12;46.90
37852;BME280;23691;52.486;4.650;2023-06-01T09:23:44;102516.47;;;20.18;46.91
37852;BME280;23691;52.486;4.650;2023-06-01T09:26:11;102522.78;;;20.19;46.87
37852;BME280;23691;52.486;4.650;2023-06-01T09:28:56;102524.19;;;20.00;46.78
37852;BME280;23691;52.486;4.650;2023-06-01T09:31:35;102520.41;;;19.86;46.89
37852;BME280;23691;52.486;4.650;2023-06-01T09:34:01;102522.94;;;19.72;47.04
37852;BME280;23691;52.486;4.650;2023-06-01T09:36:26;102516.31;;;19.52;46.99
37852;BME280;23691;52.486;4.650;2023-06-01T09:39:02;102515.41;;;19.37;47.36
37852;BME280;23691;52.486;4.650;2023-06-01T09:41:44;102503.81;;;19.43;47.24
37852;BME280;23691;52.486;4.650;2023-06-01T09:44:09;102510.22;;;20.03;46.50
37852;BME280;23691;52.486;4.650;2023-06-01T09:46:46;102500.91;;;20.42;45.98
37852;BME280;23691;52.486;4.650;2023-06-01T09:49:18;102502.91;;;20.63;45.83
37852;BME280;23691;52.486;4.650;2023-06-01T09:51:44;102502.38;;;20.74;45.38
37852;BME280;23691;52.486;4.650;2023-06-01T09:54:10;102507.13;;;20.87;45.17
37852;BME280;23691;52.486;4.650;2023-06-01T09:56:45;102503.66;;;20.93;45.21
37852;BME280;23691;52.486;4.650;2023-06-01T09:59:11;102501.56;;;20.95;44.89
37852;BME280;23691;52.486;4.650;2023-06-01T10:01:36;102506.22;;;21.01;44.86
37852;BME280;23691;52.486;4.650;2023-06-01T10:04:04;102499.69;;;20.95;44.81
37852;BME280;23691;52.486;4.650;2023-06-01T10:06:33;102484.13;;;21.11;44.44
37852;BME280;23691;52.486;4.650;2023-06-01T10:09:00;102487.69;;;21.11;44.18
37852;BME280;23691;52.486;4.650;2023-06-01T10:11:27;102490.81;;;21.08;44.21
37852;BME280;23691;52.486;4.650;2023-06-01T10:13:53;102485.38;;;21.30;44.24
37852;BME280;23691;52.486;4.650;2023-06-01T10:16:18;102490.25;;;21.62;43.53
37852;BME280;23691;52.486;4.650;2023-06-01T10:18:45;102486.53;;;21.70;43.58
37852;BME280;23691;52.486;4.650;2023-06-01T10:21:11;102482.91;;;21.56;43.75
37852;BME280;23691;52.486;4.650;2023-06-01T10:23:37;102482.03;;;21.84;43.20
37852;BME280;23691;52.486;4.650;2023-06-01T10:26:10;102483.81;;;21.98;42.53
37852;BME280;23691;52.486;4.650;2023-06-01T10:28:37;102492.44;;;22.08;42.70
37852;BME280;23691;52.486;4.650;2023-06-01T10:31:36;102488.19;;;22.34;42.28
37852;BME280;23691;52.486;4.650;2023-06-01T10:34:01;102474.41;;;22.42;42.56
37852;BME280;23691;52.486;4.650;2023-06-01T10:39:32;102484.69;;;22.12;42.47
37852;BME280;23691;52.486;4.650;2023-06-01T10:47:49;102488.13;;;21.86;43.37
37852;BME280;23691;52.486;4.650;2023-06-01T10:55:19;102477.47;;;21.13;45.12
37852;BME280;23691;52.486;4.650;2023-06-01T10:57:45;102483.75;;;21.14;45.16
37852;BME280;23691;52.486;4.650;2023-06-01T11:02:54;102492.03;;;20.63;45.96
37852;BME280;23691;52.486;4.650;2023-06-01T11:05:51;102484.63;;;20.42;46.79
37852;BME280;23691;52.486;4.650;2023-06-01T11:13:27;102482.81;;;19.60;49.81
37852;BME280;23691;52.486;4.650;2023-06-01T11:21:17;102488.22;;;18.99;52.20
37852;BME280;23691;52.486;4.650;2023-06-01T11:23:44;102483.94;;;18.81;52.88
37852;BME280;23691;52.486;4.650;2023-06-01T11:26:14;102480.75;;;18.70;53.20
37852;BME280;23691;52.486;4.650;2023-06-01T11:28:41;102481.97;;;18.67;53.41
37852;BME280;23691;52.486;4.650;2023-06-01T11:31:09;102490.16;;;18.59;53.46
37852;BME280;23691;52.486;4.650;2023-06-01T11:33:38;102487.66;;;18.41;53.72
37852;BME280;23691;52.486;4.650;2023-06-01T11:36:04;102494.06;;;18.48;53.72
37852;BME280;23691;52.486;4.650;2023-06-01T11:38:48;102497.28;;;18.52;53.50
37852;BME280;23691;52.486;4.650;2023-06-01T11:41:13;102488.31;;;18.51;53.27
37852;BME280;23691;52.486;4.650;2023-06-01T11:43:39;102492.63;;;18.37;53.20
37852;BME280;23691;52.486;4.650;2023-06-01T11:46:06;102492.63;;;18.37;53.24
37852;BME280;23691;52.486;4.650;2023-06-01T11:48:32;102485.09;;;18.48;53.40
37852;BME280;23691;52.486;4.650;2023-06-01T11:51:02;102483.44;;;18.47;53.34
37852;BME280;23691;52.486;4.650;2023-06-01T11:53:31;102480.50;;;18.56;53.08
37852;BME280;23691;52.486;4.650;2023-06-01T11:55:58;102478.25;;;18.68;52.67
37852;BME280;23691;52.486;4.650;2023-06-01T11:58:28;102478.22;;;18.76;52.71
37852;BME280;23691;52.486;4.650;2023-06-01T12:00:55;102475.13;;;18.79;52.46
37852;BME280;23691;52.486;4.650;2023-06-01T12:03:22;102477.63;;;18.89;52.55
37852;BME280;23691;52.486;4.650;2023-06-01T12:05:50;102477.75;;;18.64;53.46
37852;BME280;23691;52.486;4.650;2023-06-01T12:08:18;102472.81;;;18.37;54.47
37852;BME280;23691;52.486;4.650;2023-06-01T12:10:48;102473.03;;;18.27;54.44
37852;BME280;23691;52.486;4.650;2023-06-01T12:13:16;102479.00;;;18.14;54.81
37852;BME280;23691;52.486;4.650;2023-06-01T12:15:42;102488.00;;;17.98;55.17
37852;BME280;23691;52.486;4.650;2023-06-01T12:18:07;102472.78;;;17.89;55.11
37852;BME280;23691;52.486;4.650;2023-06-01T12:20:42;102480.59;;;17.92;55.06
37852;BME280;23691;52.486;4.650;2023-06-01T12:25:54;102485.66;;;17.79;55.14
37852;BME280;23691;52.486;4.650;2023-06-01T12:28:21;102480.44;;;17.86;55.66
37852;BME280;23691;52.486;4.650;2023-06-01T12:30:47;102482.78;;;17.89;55.61
37852;BME280;23691;52.486;4.650;2023-06-01T12:33:35;102488.41;;;17.87;55.61
37852;BME280;23691;52.486;4.650;2023-06-01T12:36:05;102491.06;;;17.79;55.69
37852;BME280;23691;52.486;4.650;2023-06-01T12:38:49;102484.16;;;17.85;55.67
37852;BME280;23691;52.486;4.650;2023-06-01T12:41:15;102477.25;;;17.82;56.02
37852;BME280;23691;52.486;4.650;2023-06-01T12:43:46;102473.97;;;17.95;55.55
37852;BME280;23691;52.486;4.650;2023-06-01T12:46:21;102481.41;;;18.01;55.40
37852;BME280;23691;52.486;4.650;2023-06-01T12:48:48;102482.91;;;18.03;55.64
37852;BME280;23691;52.486;4.650;2023-06-01T12:51:14;102479.53;;;18.01;55.69
37852;BME280;23691;52.486;4.650;2023-06-01T12:53:40;102475.63;;;18.12;55.67
37852;BME280;23691;52.486;4.650;2023-06-01T12:56:08;102476.13;;;18.08;55.70
37852;BME280;23691;52.486;4.650;2023-06-01T12:58:33;102483.56;;;18.14;55.39
37852;BME280;23691;52.486;4.650;2023-06-01T13:00:59;102481.06;;;18.04;55.51
37852;BME280;23691;52.486;4.650;2023-06-01T13:03:24;102477.00;;;18.00;55.43
37852;BME280;23691;52.486;4.650;2023-06-01T13:05:50;102476.69;;;17.95;55.12
37852;BME280;23691;52.486;4.650;2023-06-01T13:08:16;102475.47;;;18.06;54.81
37852;BME280;23691;52.486;4.650;2023-06-01T13:10:42;102473.72;;;18.21;54.36
37852;BME280;23691;52.486;4.650;2023-06-01T13:13:08;102479.44;;;18.34;53.88
37852;BME280;23691;52.486;4.650;2023-06-01T13:15:35;102465.78;;;18.51;53.40
37852;BME280;23691;52.486;4.650;2023-06-01T13:18:01;102467.47;;;18.52;52.89
37852;BME280;23691;52.486;4.650;2023-06-01T13:20:26;102466.66;;;18.51;53.01
37852;BME280;23691;52.486;4.650;2023-06-01T13:22:52;102465.75;;;18.59;52.85